Airfield :
LOGIN :

Register | Disclaimer

   EN    FR    IT 

 










Legend :    VFR   Marginal VFR   IFR   Intensive IFR   Very Intensive IFR
Visi :
Ceiling :
>= 8 km
>= 3000ft
5 to 8 km
1000 to 3000 ft
1500m to 5 km
500 to 1000 ft
800 to 1500m
200 to 500 ft
< 800m
< 200 ft
Symbols :   Thunderstorms  Fog  Heavy snow  Heavy precipitations  Wind > 20 kt
SIGMETs :     Misc.  Thunderstorms  Icing  Turbulence  Mountain Waves  Volcanic Ashes







- Airport Elevation : 72 ft
- IATA code : UDE


EHVK - Volkel Airbase

CURRENT METAR :
  • 220225Z AUTO 04005KT 010V070 0250 -UP OVC000 06/06 Q1031 RED

EXPIRED METARs :
  • 220155Z AUTO 04004KT 0500 -UP NCD 05/05 Q1031 RED
  • 220147Z AUTO 05004KT 0500 FG NCD 05/05 Q1031 RED
  • 220140Z AUTO 05004KT 0900 FG NCD 05/05 Q1031 AMB
  • 220125Z AUTO 05003KT 020V080 0250 FG NCD 05/05 Q1031 RED
  • 220105Z AUTO 06003KT 0150 FG SCT000 04/04 Q1031 RED
  • 220055Z AUTO VRB02KT 1200 BR NCD 05/05 Q1032 AMB
  • 220026Z AUTO 02003KT 1400 BR SCT330 05/05 Q1032 AMB
  • 220025Z AUTO 03002KT 0650 FG BKN330 05/05 Q1032 RED
  • 220006Z AUTO 04002KT 1400 BR BKN310 05/05 Q1032 AMB
  • 212355Z AUTO 05002KT 0550 FG FEW310 SCT400 05/05 Q1032 RED
  • 212339Z AUTO 04003KT 0550 FG OVC300 05/05 Q1032 RED

TAF COR TAF EHVK
Valid from the 22 at 02:00 until the 22 at 14:00 UTC


220134Z 2202/2214 06003KT 0100 FG BKN001
BECMG 2208/2210 15004KT 2000 BR BKN003
BECMG 2210/2212 18004KT 6000 NSW
No reported NOTAMs for that airfield.



MET'MAP, your aeronautical weather chart ! - Copyright ORBIFLY December 2007 - Disclaimer

ORBIFLY MET'MAP TEAM :

Programming & Development : Alexandra Zaïnal
Concept & Development : Baudouin d'Aumeries
Co-Development & Prog : Marc-Olivier Méhu
Technical & hardware support : Manuel Goepfert

Contact : metmap@orbifly.com




SOURCES & CREDITS :

   NOAA